createdAt,value
2019-02-07T00:03:34.714Z,5.47
2019-02-07T00:08:40.334Z,5.90
2019-02-07T00:13:45.692Z,5.97
2019-02-07T00:18:51.148Z,4.93
2019-02-07T00:23:56.610Z,4.90
2019-02-07T00:29:01.774Z,4.80
2019-02-07T00:34:07.072Z,5.30
2019-02-07T00:39:12.221Z,4.77
2019-02-07T00:44:17.482Z,5.00
2019-02-07T00:49:22.573Z,5.13
2019-02-07T00:54:28.459Z,4.33
2019-02-07T00:59:33.684Z,4.67
2019-02-07T01:04:39.183Z,5.07
2019-02-07T01:09:44.405Z,4.93
2019-02-07T01:14:55.283Z,4.70
2019-02-07T01:19:57.237Z,4.00
2019-02-07T01:25:02.390Z,4.47
2019-02-07T01:30:09.927Z,4.27
2019-02-07T01:35:15.587Z,4.33
2019-02-07T01:40:21.151Z,4.47
2019-02-07T01:45:26.295Z,4.10
2019-02-07T01:50:31.440Z,4.17
2019-02-07T01:55:36.580Z,4.23
2019-02-07T02:00:42.057Z,3.70
2019-02-07T02:05:47.777Z,4.10
2019-02-07T02:10:52.924Z,4.33
2019-02-07T02:15:58.486Z,3.97
2019-02-07T02:21:03.647Z,3.93
2019-02-07T02:26:09.288Z,4.00
2019-02-07T02:31:14.652Z,3.70
2019-02-07T02:36:20.078Z,3.83
2019-02-07T02:41:25.625Z,3.50
2019-02-07T02:46:30.791Z,3.90
2019-02-07T02:51:36.520Z,3.50
2019-02-07T02:56:41.608Z,3.23
2019-02-07T03:01:58.213Z,3.53
2019-02-07T03:07:20.198Z,3.23
2019-02-07T03:12:53.740Z,3.50
2019-02-07T03:18:20.767Z,3.23
2019-02-07T03:23:44.217Z,2.60
2019-02-07T03:29:14.481Z,3.13
2019-02-07T03:34:39.337Z,2.57
2019-02-07T03:39:55.000Z,2.77
2019-02-07T03:45:18.108Z,2.97
2019-02-07T03:50:41.378Z,2.63
2019-02-07T03:56:03.010Z,2.70
2019-02-07T04:01:30.630Z,2.57
2019-02-07T04:07:00.092Z,2.53
2019-02-07T04:12:17.022Z,2.60
2019-02-07T04:17:56.253Z,2.70
2019-02-07T04:23:27.301Z,2.57
2019-02-07T04:28:48.369Z,2.50
2019-02-07T04:34:09.113Z,2.60
2019-02-07T04:39:33.356Z,2.70
2019-02-07T04:44:58.570Z,2.43
2019-02-07T04:50:31.931Z,2.70
2019-02-07T04:55:52.544Z,2.60
2019-02-07T05:01:08.150Z,2.40
2019-02-07T05:06:23.122Z,1.93
2019-02-07T05:11:47.972Z,2.50
2019-02-07T05:17:04.891Z,2.47
2019-02-07T05:22:47.603Z,2.30
2019-02-07T05:28:04.944Z,2.30
2019-02-07T05:33:38.448Z,2.50
2019-02-07T05:38:52.348Z,2.10
2019-02-07T05:44:14.057Z,2.17
2019-02-07T05:49:50.447Z,2.30
2019-02-07T05:55:24.924Z,2.20
2019-02-07T06:00:52.483Z,1.97
2019-02-07T06:06:09.186Z,1.80
2019-02-07T06:11:37.784Z,1.97
2019-02-07T06:17:03.465Z,2.30
2019-02-07T06:22:26.649Z,2.00
2019-02-07T06:27:40.488Z,2.17
2019-02-07T06:33:16.793Z,2.33
2019-02-07T06:38:56.121Z,3.03
2019-02-07T06:44:19.209Z,2.20
2019-02-07T06:49:46.507Z,2.40
2019-02-07T06:55:09.832Z,2.10
2019-02-07T07:00:25.623Z,2.07
2019-02-07T07:05:48.811Z,2.50
2019-02-07T07:11:20.980Z,2.40
2019-02-07T07:16:43.804Z,2.43
2019-02-07T07:22:07.287Z,2.53
2019-02-07T07:27:35.133Z,2.70
2019-02-07T07:32:59.440Z,2.90
2019-02-07T07:38:26.875Z,3.00
2019-02-07T07:44:03.912Z,2.90
2019-02-07T07:49:26.952Z,2.70
2019-02-07T07:55:03.638Z,2.90
2019-02-07T08:00:33.500Z,2.70
2019-02-07T08:05:54.425Z,2.90
2019-02-07T08:11:07.074Z,3.20
2019-02-07T08:16:31.629Z,3.30
2019-02-07T08:21:51.351Z,3.10
2019-02-07T08:27:18.413Z,3.60
2019-02-07T08:32:48.441Z,3.30
2019-02-07T08:38:15.656Z,3.53
2019-02-07T08:43:37.784Z,3.97
2019-02-07T08:49:01.963Z,3.63
2019-02-07T08:54:35.212Z,3.53
2019-02-07T08:59:58.288Z,3.47
2019-02-07T09:05:25.724Z,4.23
2019-02-07T09:10:47.512Z,4.17
2019-02-07T09:16:05.646Z,4.37
2019-02-07T09:21:32.556Z,4.63
2019-02-07T09:26:48.625Z,4.70
2019-02-07T09:32:12.833Z,5.20
2019-02-07T09:37:42.803Z,5.63
2019-02-07T09:43:00.601Z,5.40
2019-02-07T09:48:24.877Z,5.60
2019-02-07T09:53:49.548Z,6.00
2019-02-07T09:59:22.371Z,6.87
2019-02-07T10:04:44.472Z,6.53
2019-02-07T10:10:24.329Z,6.60
2019-02-07T10:15:47.184Z,7.03
2019-02-07T10:21:14.756Z,7.10
2019-02-07T10:26:42.044Z,7.23
2019-02-07T10:32:08.236Z,7.40
2019-02-07T10:37:31.285Z,7.20
2019-02-07T10:43:13.545Z,6.87
2019-02-07T10:48:44.170Z,7.73
2019-02-07T10:53:51.479Z,7.60
2019-02-07T10:59:13.602Z,7.40
2019-02-07T11:04:37.812Z,7.40
2019-02-07T11:09:56.883Z,8.60
2019-02-07T11:15:25.183Z,8.13
2019-02-07T11:20:58.408Z,8.47
2019-02-07T11:26:22.927Z,7.93
2019-02-07T11:31:56.420Z,8.60
2019-02-07T11:37:19.238Z,8.13
2019-02-07T11:42:53.311Z,7.67
2019-02-07T11:48:09.332Z,7.90
2019-02-07T11:53:27.070Z,8.13
2019-02-07T11:58:54.825Z,8.50
2019-02-07T12:04:22.026Z,8.90
2019-02-07T12:09:55.562Z,10.13
2019-02-07T12:15:28.886Z,9.87
2019-02-07T12:20:53.038Z,9.87
2019-02-07T12:26:23.234Z,9.60
2019-02-07T12:31:46.346Z,9.30
2019-02-07T12:37:20.907Z,10.27
2019-02-07T12:42:45.069Z,10.20
2019-02-07T12:48:01.032Z,10.70
2019-02-07T12:53:26.149Z,10.37
2019-02-07T12:58:46.755Z,10.90
2019-02-07T13:04:23.144Z,11.27
2019-02-07T13:09:59.520Z,10.90
2019-02-07T13:15:19.552Z,10.50
2019-02-07T13:20:46.544Z,11.23
2019-02-07T13:26:09.314Z,11.20
2019-02-07T13:31:26.152Z,10.87
2019-02-07T13:36:49.581Z,11.33
2019-02-07T13:42:32.035Z,12.00
2019-02-07T13:47:58.968Z,12.10
2019-02-07T13:53:25.013Z,11.17
2019-02-07T13:58:47.999Z,11.40
2019-02-07T14:04:18.289Z,11.87
2019-02-07T14:09:36.112Z,11.93
2019-02-07T14:15:06.474Z,11.43
2019-02-07T14:20:43.136Z,10.50
2019-02-07T14:26:00.551Z,10.77
2019-02-07T14:31:43.253Z,11.07
2019-02-07T14:37:25.470Z,11.57
2019-02-07T14:42:52.887Z,12.30
2019-02-07T14:47:58.074Z,10.97
2019-02-07T14:53:03.258Z,11.43
2019-02-07T14:58:08.819Z,11.20
2019-02-07T15:03:14.051Z,10.83
2019-02-07T15:08:20.122Z,10.63
2019-02-07T15:13:25.299Z,10.27
2019-02-07T15:18:30.469Z,10.67
2019-02-07T15:23:35.648Z,10.47
2019-02-07T15:28:40.934Z,10.53
2019-02-07T15:33:46.235Z,11.03
2019-02-07T15:38:51.802Z,11.13
2019-02-07T15:43:58.173Z,10.90
2019-02-07T15:49:03.624Z,11.83
2019-02-07T15:54:08.793Z,11.17
2019-02-07T15:59:34.143Z,11.93
2019-02-07T16:04:41.858Z,11.23
2019-02-07T16:09:47.155Z,11.57
2019-02-07T16:14:52.818Z,10.67
2019-02-07T16:19:58.001Z,12.37
2019-02-07T16:25:03.185Z,11.40
2019-02-07T16:30:12.710Z,11.47
2019-02-07T16:35:18.239Z,11.30
2019-02-07T16:40:23.847Z,10.67
2019-02-07T16:45:30.102Z,12.50
2019-02-07T16:50:35.809Z,11.60
2019-02-07T16:55:40.996Z,11.73
2019-02-07T17:00:46.533Z,12.23
2019-02-07T17:05:51.720Z,12.13
2019-02-07T17:10:59.061Z,11.77
2019-02-07T17:16:04.843Z,11.50
2019-02-07T17:21:12.127Z,11.23
2019-02-07T17:26:17.109Z,11.20
2019-02-07T17:31:23.330Z,11.37
2019-02-07T17:36:28.784Z,12.07
2019-02-07T17:41:36.022Z,11.17
2019-02-07T17:46:41.209Z,11.63
2019-02-07T17:51:46.726Z,12.10
2019-02-07T17:56:51.956Z,11.70
2019-02-07T18:01:57.222Z,11.13
2019-02-07T18:07:02.393Z,10.57
2019-02-07T18:12:08.177Z,11.50
2019-02-07T18:17:13.790Z,11.47
2019-02-07T18:22:19.980Z,12.10
2019-02-07T18:27:25.196Z,11.50
2019-02-07T18:32:30.455Z,12.27
2019-02-07T18:37:36.379Z,12.17
2019-02-07T18:42:41.583Z,12.60
2019-02-07T18:47:46.994Z,11.87
2019-02-07T18:52:52.729Z,11.97
2019-02-07T18:57:59.161Z,12.40
2019-02-07T19:03:05.437Z,13.20
2019-02-07T19:08:10.988Z,13.43
2019-02-07T19:13:16.574Z,13.53
2019-02-07T19:18:21.952Z,13.40
2019-02-07T19:23:27.467Z,14.67
2019-02-07T19:28:33.201Z,14.67
2019-02-07T19:33:39.036Z,14.03
2019-02-07T19:38:44.268Z,13.60
2019-02-07T19:43:49.525Z,14.93
2019-02-07T19:48:55.284Z,14.97
2019-02-07T19:54:01.447Z,13.87
2019-02-07T19:59:07.582Z,14.67
2019-02-07T20:04:14.109Z,15.00
2019-02-07T20:09:19.649Z,15.07
2019-02-07T20:14:24.851Z,14.30
2019-02-07T20:19:30.074Z,14.50
2019-02-07T20:24:45.678Z,14.77
2019-02-07T20:29:42.389Z,15.13
2019-02-07T20:34:47.598Z,15.87
2019-02-07T20:39:53.072Z,16.13
2019-02-07T20:44:58.256Z,16.27
2019-02-07T20:50:05.863Z,16.10
2019-02-07T20:55:12.405Z,16.03
2019-02-07T21:00:23.589Z,15.23
2019-02-07T21:05:30.188Z,15.53
2019-02-07T21:10:35.779Z,15.27
2019-02-07T21:15:41.908Z,15.83
2019-02-07T21:20:47.097Z,14.47
2019-02-07T21:25:53.097Z,16.70
2019-02-07T21:30:58.641Z,15.47
2019-02-07T21:36:04.083Z,14.60
2019-02-07T21:41:09.690Z,14.33
2019-02-07T21:46:14.869Z,15.10
2019-02-07T21:51:20.251Z,15.97
2019-02-07T21:56:25.462Z,15.30
2019-02-07T22:01:30.646Z,13.87
2019-02-07T22:06:37.320Z,14.23
2019-02-07T22:11:42.619Z,13.33
2019-02-07T22:16:48.299Z,13.90
2019-02-07T22:21:53.568Z,13.57
2019-02-07T22:26:58.738Z,13.43
2019-02-07T22:32:04.071Z,14.03
2019-02-07T22:37:09.490Z,13.97
2019-02-07T22:42:15.044Z,14.90
2019-02-07T22:47:20.600Z,14.13
2019-02-07T22:52:25.918Z,14.77
2019-02-07T22:57:32.976Z,14.23
2019-02-07T23:02:38.660Z,15.07
2019-02-07T23:07:44.156Z,13.07
2019-02-07T23:12:49.330Z,13.30
2019-02-07T23:17:54.902Z,13.67
2019-02-07T23:23:05.186Z,13.97
2019-02-07T23:28:07.946Z,13.70
2019-02-07T23:33:13.756Z,14.03
2019-02-07T23:38:18.908Z,13.90
2019-02-07T23:43:24.515Z,13.33
2019-02-07T23:48:29.721Z,14.23
2019-02-07T23:53:34.898Z,13.83
2019-02-07T23:58:40.097Z,14.23
